createdAt,value
2022-11-20T00:01:23.454Z,13.83
2022-11-20T00:03:51.686Z,13.88
2022-11-20T00:06:19.846Z,14.00
2022-11-20T00:08:47.347Z,13.13
2022-11-20T00:11:16.416Z,15.07
2022-11-20T00:13:44.816Z,16.07
2022-11-20T00:16:13.228Z,13.65
2022-11-20T00:18:39.867Z,13.60
2022-11-20T00:21:18.433Z,14.10
2022-11-20T00:23:45.988Z,15.50
2022-11-20T00:26:15.103Z,13.60
2022-11-20T00:28:42.828Z,14.13
2022-11-20T00:31:15.474Z,12.35
2022-11-20T00:33:43.659Z,12.63
2022-11-20T00:36:19.251Z,14.70
2022-11-20T00:38:46.702Z,15.07
2022-11-20T00:41:15.987Z,20.08
2022-11-20T00:43:42.933Z,14.43
2022-11-20T00:46:14.053Z,14.18
2022-11-20T00:48:40.674Z,16.15
2022-11-20T00:51:07.498Z,14.33
2022-11-20T00:53:34.418Z,13.60
2022-11-20T00:56:04.572Z,11.98
2022-11-20T00:58:40.406Z,11.98
2022-11-20T01:01:11.216Z,11.95
2022-11-20T01:03:41.315Z,13.48
2022-11-20T01:06:10.375Z,9.77
2022-11-20T01:08:37.719Z,8.57
2022-11-20T01:11:07.743Z,8.43
2022-11-20T01:13:40.621Z,9.68
2022-11-20T01:16:14.814Z,8.10
2022-11-20T01:18:44.330Z,7.90
2022-11-20T01:21:16.671Z,7.72
2022-11-20T01:23:44.529Z,7.15
2022-11-20T01:26:14.423Z,7.43
2022-11-20T01:28:41.982Z,8.30
2022-11-20T01:31:19.687Z,6.32
2022-11-20T01:33:47.904Z,6.05
2022-11-20T01:36:15.690Z,5.38
2022-11-20T01:38:42.925Z,8.15
2022-11-20T01:41:11.926Z,8.45
2022-11-20T01:43:38.584Z,5.78
2022-11-20T01:46:18.770Z,5.70
2022-11-20T01:49:06.843Z,5.55
2022-11-20T01:51:44.848Z,5.43
2022-11-20T01:54:20.506Z,9.57
2022-11-20T01:56:51.794Z,8.48
2022-11-20T01:59:21.115Z,5.80
2022-11-20T02:01:48.028Z,5.18
2022-11-20T02:04:16.679Z,5.18
2022-11-20T02:07:09.679Z,5.43
2022-11-20T02:09:36.335Z,5.43
2022-11-20T02:12:04.186Z,5.43
2022-11-20T02:14:30.972Z,5.10
2022-11-20T02:16:57.671Z,5.22
2022-11-20T02:19:28.395Z,5.10
2022-11-20T02:22:08.663Z,5.10
2022-11-20T02:24:35.556Z,4.55
2022-11-20T02:27:11.048Z,5.18
2022-11-20T02:29:54.747Z,5.10
2022-11-20T02:32:28.699Z,5.57
2022-11-20T02:34:55.751Z,5.03
2022-11-20T02:37:22.920Z,5.07
2022-11-20T02:39:51.862Z,5.07
2022-11-20T02:42:19.238Z,5.38
2022-11-20T02:44:45.894Z,4.67
2022-11-20T02:47:12.538Z,5.10
2022-11-20T02:49:39.621Z,4.70
2022-11-20T02:52:06.206Z,4.57
2022-11-20T02:54:32.899Z,4.78
2022-11-20T02:56:59.538Z,7.77
2022-11-20T02:59:26.235Z,5.40
2022-11-20T03:01:52.838Z,5.70
2022-11-20T03:04:19.474Z,5.22
2022-11-20T03:06:46.103Z,5.43
2022-11-20T03:09:13.105Z,5.03
2022-11-20T03:11:39.763Z,4.65
2022-11-20T03:14:06.720Z,4.55
2022-11-20T03:16:33.870Z,4.70
2022-11-20T03:19:01.109Z,5.20
2022-11-20T03:21:27.818Z,5.30
2022-11-20T03:23:55.088Z,4.15
2022-11-20T03:26:25.496Z,4.65
2022-11-20T03:28:54.235Z,4.63
2022-11-20T03:31:23.737Z,4.68
2022-11-20T03:33:51.136Z,4.23
2022-11-20T03:36:19.468Z,4.32
2022-11-20T03:38:46.544Z,3.67
2022-11-20T03:41:19.204Z,3.97
2022-11-20T03:43:56.767Z,3.70
2022-11-20T03:46:24.828Z,3.37
2022-11-20T03:48:52.328Z,3.70
2022-11-20T03:51:27.268Z,3.15
2022-11-20T03:53:56.155Z,3.17
2022-11-20T03:56:28.167Z,2.80
2022-11-20T03:58:55.280Z,2.90
2022-11-20T04:01:25.003Z,2.63
2022-11-20T04:03:54.641Z,4.00
2022-11-20T04:06:27.131Z,3.58
2022-11-20T04:08:58.827Z,4.20
2022-11-20T04:11:30.733Z,3.60
2022-11-20T04:14:00.326Z,3.47
2022-11-20T04:16:29.805Z,3.20
2022-11-20T04:18:58.364Z,2.85
2022-11-20T04:21:25.950Z,3.00
2022-11-20T04:23:56.099Z,2.40
2022-11-20T04:26:24.831Z,2.17
2022-11-20T04:28:51.698Z,2.40
2022-11-20T04:31:23.636Z,2.20
2022-11-20T04:33:50.970Z,2.10
2022-11-20T04:36:20.555Z,2.27
2022-11-20T04:38:53.834Z,2.20
2022-11-20T04:41:25.426Z,3.55
2022-11-20T04:43:54.253Z,3.10
2022-11-20T04:46:21.743Z,3.95
2022-11-20T04:48:48.933Z,3.33
2022-11-20T04:51:15.979Z,3.50
2022-11-20T04:53:42.698Z,3.22
2022-11-20T04:56:11.570Z,3.10
2022-11-20T04:58:38.877Z,3.95
2022-11-20T05:01:17.352Z,3.60
2022-11-20T05:03:45.658Z,3.42
2022-11-20T05:06:15.352Z,3.70
2022-11-20T05:08:42.538Z,3.42
2022-11-20T05:11:12.165Z,3.70
2022-11-20T05:13:39.555Z,3.57
2022-11-20T05:16:08.770Z,4.07
2022-11-20T05:18:36.673Z,3.78
2022-11-20T05:21:03.631Z,3.38
2022-11-20T05:23:31.321Z,3.65
2022-11-20T05:25:59.604Z,3.43
2022-11-20T05:28:28.767Z,3.17
2022-11-20T05:30:55.515Z,3.17
2022-11-20T05:33:22.403Z,3.20
2022-11-20T05:35:49.559Z,4.45
2022-11-20T05:38:16.728Z,3.13
2022-11-20T05:40:43.720Z,7.32
2022-11-20T05:43:10.443Z,5.82
2022-11-20T05:45:37.159Z,5.03
2022-11-20T05:48:03.963Z,4.00
2022-11-20T05:50:30.914Z,8.20
2022-11-20T05:53:01.373Z,3.70
2022-11-20T05:55:28.540Z,3.88
2022-11-20T05:57:55.899Z,4.38
2022-11-20T06:00:23.410Z,3.70
2022-11-20T06:02:50.223Z,3.90
2022-11-20T06:05:16.949Z,4.07
2022-11-20T06:07:43.711Z,3.97
2022-11-20T06:10:11.227Z,3.90
2022-11-20T06:12:37.922Z,3.90
2022-11-20T06:15:05.950Z,4.30
2022-11-20T06:17:32.697Z,4.10
2022-11-20T06:19:59.384Z,4.10
2022-11-20T06:22:26.018Z,3.95
2022-11-20T06:24:52.673Z,4.55
2022-11-20T06:27:19.416Z,4.37
2022-11-20T06:29:46.148Z,5.10
2022-11-20T06:32:12.800Z,5.82
2022-11-20T06:34:39.704Z,4.90
2022-11-20T06:37:06.362Z,4.00
2022-11-20T06:39:32.985Z,3.70
2022-11-20T06:41:59.699Z,3.80
2022-11-20T06:44:26.901Z,4.40
2022-11-20T06:46:53.509Z,4.28
2022-11-20T06:49:20.438Z,3.10
2022-11-20T06:51:47.304Z,3.27
2022-11-20T06:54:13.926Z,3.72
2022-11-20T06:56:40.635Z,4.40
2022-11-20T06:59:08.084Z,5.50
2022-11-20T07:01:35.951Z,5.30
2022-11-20T07:04:04.146Z,5.10
2022-11-20T07:06:31.042Z,4.43
2022-11-20T07:08:58.452Z,5.38
2022-11-20T07:11:25.092Z,4.75
2022-11-20T07:13:51.985Z,4.90
2022-11-20T07:16:18.737Z,5.00
2022-11-20T07:18:50.254Z,6.40
2022-11-20T07:21:17.995Z,4.82
2022-11-20T07:23:44.663Z,4.03
2022-11-20T07:26:12.257Z,4.05
2022-11-20T07:28:39.352Z,4.93
2022-11-20T07:31:07.944Z,7.05
2022-11-20T07:33:34.641Z,6.07
2022-11-20T07:36:01.490Z,5.10
2022-11-20T07:38:28.145Z,5.10
2022-11-20T07:40:58.808Z,6.00
2022-11-20T07:43:26.243Z,6.53
2022-11-20T07:45:53.044Z,6.28
2022-11-20T07:48:19.738Z,6.32
2022-11-20T07:50:46.692Z,6.15
2022-11-20T07:53:14.850Z,6.27
2022-11-20T07:55:41.567Z,5.50
2022-11-20T07:58:08.235Z,5.18
2022-11-20T08:00:34.980Z,5.65
2022-11-20T08:03:06.906Z,6.25
2022-11-20T08:05:34.362Z,6.00
2022-11-20T08:08:01.190Z,6.85
2022-11-20T08:10:28.139Z,8.00
2022-11-20T08:13:13.383Z,9.02
2022-11-20T08:15:41.230Z,8.57
2022-11-20T08:20:58.550Z,9.35
2022-11-20T08:23:25.266Z,8.30
2022-11-20T08:25:52.292Z,11.27
2022-11-20T08:28:21.650Z,16.00
2022-11-20T08:30:50.888Z,42.40
2022-11-20T08:33:18.642Z,27.70
2022-11-20T08:35:45.351Z,18.65
2022-11-20T08:38:11.998Z,8.70
2022-11-20T08:40:38.662Z,16.90
2022-11-20T08:43:05.372Z,6.47
2022-11-20T08:45:34.670Z,7.55
2022-11-20T08:48:05.380Z,5.60
2022-11-20T08:50:33.979Z,5.72
2022-11-20T08:53:07.032Z,3.88
2022-11-20T08:55:36.306Z,3.30
2022-11-20T08:58:06.584Z,3.67
2022-11-20T09:00:34.677Z,2.50
2022-11-20T09:03:02.272Z,2.50
2022-11-20T09:05:29.158Z,2.50
2022-11-20T09:07:59.925Z,2.60
2022-11-20T09:10:29.656Z,2.22
2022-11-20T09:12:57.068Z,2.80
2022-11-20T09:15:24.771Z,4.32
2022-11-20T09:18:02.429Z,4.00
2022-11-20T09:20:30.825Z,3.47
2022-11-20T09:22:58.356Z,3.15
2022-11-20T09:25:25.217Z,2.80
2022-11-20T09:27:59.204Z,2.90
2022-11-20T09:30:26.748Z,2.42
2022-11-20T09:32:53.489Z,2.27
2022-11-20T09:35:20.350Z,2.17
2022-11-20T09:37:47.120Z,2.22
2022-11-20T09:40:24.270Z,1.70
2022-11-20T09:43:33.648Z,2.40
2022-11-20T09:46:20.079Z,1.53
2022-11-20T09:48:59.055Z,1.98
2022-11-20T09:51:45.660Z,1.70
2022-11-20T09:54:24.332Z,1.40
2022-11-20T09:56:57.200Z,3.20
2022-11-20T09:59:44.037Z,1.90
2022-11-20T10:02:22.665Z,1.60
2022-11-20T10:04:56.456Z,1.50
2022-11-20T10:07:43.907Z,1.92
2022-11-20T10:11:08.766Z,4.20
2022-11-20T10:13:46.955Z,3.27
2022-11-20T10:16:25.313Z,8.20
2022-11-20T10:19:16.951Z,5.72
2022-11-20T10:22:10.813Z,3.50
2022-11-20T10:24:44.993Z,2.42
2022-11-20T10:27:36.567Z,1.93
2022-11-20T10:30:15.791Z,1.70
2022-11-20T10:32:47.279Z,1.40
2022-11-20T10:35:23.008Z,1.50
2022-11-20T10:37:56.143Z,1.73
2022-11-20T10:40:33.020Z,1.47
2022-11-20T10:43:22.532Z,1.60
2022-11-20T10:45:58.419Z,1.80
2022-11-20T10:48:29.691Z,1.95
2022-11-20T10:51:16.824Z,1.50
2022-11-20T10:53:52.006Z,2.77
2022-11-20T10:56:41.511Z,1.55
2022-11-20T10:59:36.473Z,1.42
2022-11-20T11:02:15.202Z,2.95
2022-11-20T11:04:46.776Z,2.50
2022-11-20T11:07:19.083Z,3.80
2022-11-20T11:09:51.896Z,2.20
2022-11-20T11:12:19.500Z,2.00
2022-11-20T11:14:52.119Z,1.80
2022-11-20T11:17:24.996Z,1.90
2022-11-20T11:20:06.074Z,1.50
2022-11-20T11:22:35.930Z,2.10
2022-11-20T11:25:03.290Z,1.88
2022-11-20T11:27:29.920Z,1.80
2022-11-20T11:30:18.394Z,1.77
2022-11-20T11:32:46.184Z,2.10
2022-11-20T11:35:28.058Z,1.90
2022-11-20T11:38:03.757Z,1.65
2022-11-20T11:40:33.715Z,1.45
2022-11-20T11:43:05.365Z,1.50
2022-11-20T11:45:32.090Z,2.43
2022-11-20T11:48:01.337Z,1.80
2022-11-20T11:50:29.849Z,2.20
2022-11-20T11:53:11.415Z,1.90
2022-11-20T11:55:47.239Z,1.80
2022-11-20T11:58:35.733Z,2.00
2022-11-20T12:01:09.922Z,1.40
2022-11-20T12:03:39.340Z,1.60
2022-11-20T12:06:13.643Z,1.40
2022-11-20T12:09:03.471Z,3.03
2022-11-20T12:11:41.016Z,1.83
2022-11-20T12:14:28.256Z,1.50
2022-11-20T12:16:57.854Z,1.35
2022-11-20T12:19:25.736Z,1.42
2022-11-20T12:22:11.547Z,1.50
2022-11-20T12:25:07.578Z,3.70
2022-11-20T12:27:59.931Z,1.95
2022-11-20T12:30:27.085Z,1.98
2022-11-20T12:33:38.315Z,1.60
2022-11-20T12:36:17.113Z,1.67
2022-11-20T12:39:03.147Z,1.60
2022-11-20T12:42:09.287Z,1.30
2022-11-20T12:45:08.639Z,2.10
2022-11-20T12:47:57.255Z,2.60
2022-11-20T12:51:00.407Z,2.00
2022-11-20T12:53:58.276Z,2.27
2022-11-20T12:57:03.633Z,2.58
2022-11-20T12:59:33.692Z,1.58
2022-11-20T13:02:20.017Z,1.77
2022-11-20T13:05:34.259Z,2.58
2022-11-20T13:08:03.032Z,1.90
2022-11-20T13:10:47.575Z,1.60
2022-11-20T13:13:45.315Z,1.90
2022-11-20T13:16:45.185Z,1.52
2022-11-20T13:19:15.623Z,1.50
2022-11-20T13:21:51.428Z,1.60
2022-11-20T13:24:24.498Z,1.77
2022-11-20T13:27:19.388Z,1.80
2022-11-20T13:29:47.797Z,1.20
2022-11-20T13:32:14.444Z,1.95
2022-11-20T13:34:53.477Z,3.20
2022-11-20T13:37:35.765Z,1.75
2022-11-20T13:40:13.257Z,3.40
2022-11-20T13:42:55.959Z,2.20
2022-11-20T13:45:26.260Z,3.08
2022-11-20T13:47:54.714Z,2.00
2022-11-20T13:50:40.042Z,1.80
2022-11-20T13:53:44.096Z,1.77
2022-11-20T13:56:20.788Z,2.00
2022-11-20T13:58:50.498Z,1.35
2022-11-20T14:01:32.436Z,1.93
2022-11-20T14:04:06.118Z,2.67
2022-11-20T14:06:40.190Z,2.00
2022-11-20T14:09:27.526Z,1.42
2022-11-20T14:11:54.187Z,1.50
2022-11-20T14:14:23.648Z,1.33
2022-11-20T14:16:53.046Z,1.90
2022-11-20T14:19:22.476Z,1.70
2022-11-20T14:22:18.330Z,1.55
2022-11-20T14:24:45.306Z,1.80
2022-11-20T14:27:18.755Z,2.03
2022-11-20T14:29:47.555Z,1.90
2022-11-20T14:32:18.076Z,1.92
2022-11-20T14:34:47.624Z,1.60
2022-11-20T14:37:20.977Z,1.63
2022-11-20T14:39:53.223Z,1.90
2022-11-20T14:42:28.204Z,1.80
2022-11-20T14:45:00.279Z,1.90
2022-11-20T14:47:30.341Z,2.58
2022-11-20T14:49:59.470Z,2.50
2022-11-20T14:52:28.585Z,2.63
2022-11-20T14:55:00.528Z,2.40
2022-11-20T14:57:28.570Z,1.80
2022-11-20T15:00:27.751Z,1.98
2022-11-20T15:02:55.101Z,2.08
2022-11-20T15:05:24.962Z,1.20
2022-11-20T15:08:07.136Z,1.95
2022-11-20T15:10:34.663Z,2.03
2022-11-20T15:13:12.431Z,1.90
2022-11-20T15:15:51.800Z,2.22
2022-11-20T15:18:40.500Z,2.20
2022-11-20T15:21:15.087Z,1.83
2022-11-20T15:23:42.562Z,1.40
2022-11-20T15:26:15.395Z,1.70
2022-11-20T15:28:48.515Z,2.42
2022-11-20T15:31:17.569Z,2.10
2022-11-20T15:33:44.412Z,1.70
2022-11-20T15:36:11.178Z,2.17
2022-11-20T15:38:38.156Z,2.50
2022-11-20T15:41:05.236Z,2.85
2022-11-20T15:43:31.878Z,2.87
2022-11-20T15:46:02.789Z,2.20
2022-11-20T15:48:56.718Z,2.60
2022-11-20T15:51:29.040Z,2.40
2022-11-20T15:53:57.141Z,2.30
2022-11-20T15:56:24.206Z,2.17
2022-11-20T15:58:50.905Z,2.20
2022-11-20T16:01:20.740Z,2.00
2022-11-20T16:03:47.786Z,2.17
2022-11-20T16:06:14.455Z,3.42
2022-11-20T16:08:41.142Z,3.53
2022-11-20T16:11:07.841Z,2.10
2022-11-20T16:13:53.652Z,2.88
2022-11-20T16:16:32.154Z,4.38
2022-11-20T16:18:59.379Z,3.80
2022-11-20T16:21:31.850Z,3.07
2022-11-20T16:24:00.745Z,5.93
2022-11-20T16:26:27.930Z,5.97
2022-11-20T16:28:55.392Z,4.00
2022-11-20T16:31:22.745Z,4.53
2022-11-20T16:33:54.068Z,3.80
2022-11-20T16:36:22.068Z,3.10
2022-11-20T16:38:53.184Z,3.75
2022-11-20T16:41:19.824Z,3.78
2022-11-20T16:43:47.617Z,4.80
2022-11-20T16:46:15.612Z,5.23
2022-11-20T16:48:42.334Z,4.57
2022-11-20T16:51:11.109Z,3.25
2022-11-20T16:53:38.217Z,3.20
2022-11-20T16:56:17.406Z,3.83
2022-11-20T16:58:48.968Z,3.90
2022-11-20T17:01:18.605Z,3.40
2022-11-20T17:03:46.680Z,3.55
2022-11-20T17:06:18.487Z,3.42
2022-11-20T17:08:46.403Z,3.30
2022-11-20T17:11:15.378Z,5.53
2022-11-20T17:13:42.072Z,6.15
2022-11-20T17:16:11.426Z,18.60
2022-11-20T17:18:38.174Z,13.55
2022-11-20T17:21:05.946Z,11.48
2022-11-20T17:23:37.158Z,20.30
2022-11-20T17:26:04.634Z,5.35
2022-11-20T17:28:32.041Z,3.33
2022-11-20T17:31:07.890Z,3.00
2022-11-20T17:33:36.970Z,3.88
2022-11-20T17:36:05.115Z,4.70
2022-11-20T17:38:31.728Z,11.02
2022-11-20T17:41:06.765Z,21.80
2022-11-20T17:43:36.975Z,5.32
2022-11-20T17:46:06.865Z,7.22
2022-11-20T17:48:34.321Z,4.90
2022-11-20T17:51:03.021Z,9.30
2022-11-20T17:53:33.750Z,7.55
2022-11-20T17:56:19.405Z,7.35
2022-11-20T17:58:46.342Z,8.35
2022-11-20T18:01:13.421Z,16.67
2022-11-20T18:03:40.156Z,17.35
2022-11-20T18:06:12.027Z,6.00
2022-11-20T18:08:39.274Z,9.35
2022-11-20T18:11:15.256Z,5.70
2022-11-20T18:14:01.544Z,4.83
2022-11-20T18:16:30.155Z,5.57
2022-11-20T18:18:58.533Z,21.55
2022-11-20T18:21:27.155Z,7.45
2022-11-20T18:23:55.584Z,16.30
2022-11-20T18:26:23.415Z,6.50
2022-11-20T18:28:50.627Z,5.47
2022-11-20T18:31:17.977Z,24.27
2022-11-20T18:33:44.699Z,7.47
2022-11-20T18:36:11.518Z,4.43
2022-11-20T18:38:40.874Z,7.33
2022-11-20T18:41:08.675Z,4.85
2022-11-20T18:43:55.716Z,7.03
2022-11-20T18:46:22.386Z,4.30
2022-11-20T18:48:49.006Z,5.22
2022-11-20T18:51:17.003Z,7.07
2022-11-20T18:53:47.283Z,4.65
2022-11-20T18:56:14.375Z,15.80
2022-11-20T18:58:41.429Z,6.80
2022-11-20T19:01:08.701Z,5.80
2022-11-20T19:03:35.392Z,6.23
2022-11-20T19:06:01.989Z,3.22
2022-11-20T19:08:28.835Z,6.20
2022-11-20T19:10:55.684Z,4.60
2022-11-20T19:13:22.479Z,5.28
2022-11-20T19:15:49.198Z,3.03
2022-11-20T19:18:15.890Z,2.30
2022-11-20T19:20:42.552Z,2.47
2022-11-20T19:23:09.497Z,1.70
2022-11-20T19:25:38.365Z,2.47
2022-11-20T19:28:05.348Z,1.70
2022-11-20T19:30:32.972Z,2.70
2022-11-20T19:32:59.695Z,2.17
2022-11-20T19:35:26.392Z,2.45
2022-11-20T19:37:53.434Z,2.17
2022-11-20T19:40:20.094Z,2.40
2022-11-20T19:42:46.739Z,2.08
2022-11-20T19:45:13.860Z,2.30
2022-11-20T19:50:27.097Z,1.40
2022-11-20T19:52:58.591Z,1.93
2022-11-20T19:55:26.302Z,1.10
2022-11-20T19:57:53.380Z,1.60
2022-11-20T20:00:28.091Z,2.30
2022-11-20T20:02:58.993Z,2.45
2022-11-20T20:05:25.706Z,1.90
2022-11-20T20:07:52.376Z,2.17
2022-11-20T20:10:20.371Z,1.90
2022-11-20T20:12:46.975Z,1.30
2022-11-20T20:15:13.657Z,1.80
2022-11-20T20:17:40.331Z,1.80
2022-11-20T20:20:07.467Z,1.50
2022-11-20T20:22:34.125Z,1.60
2022-11-20T20:25:00.787Z,1.70
2022-11-20T20:27:27.402Z,1.85
2022-11-20T20:29:54.022Z,1.27
2022-11-20T20:32:20.815Z,1.63
2022-11-20T20:34:47.483Z,1.65
2022-11-20T20:37:14.119Z,1.10
2022-11-20T20:39:40.791Z,1.50
2022-11-20T20:42:07.445Z,1.50
2022-11-20T20:44:52.671Z,1.70
2022-11-20T20:47:19.339Z,1.48
2022-11-20T20:49:45.977Z,1.40
2022-11-20T20:52:12.612Z,1.10
2022-11-20T20:54:41.866Z,1.40
2022-11-20T20:57:08.509Z,1.33
2022-11-20T20:59:35.197Z,1.20
2022-11-20T21:02:01.888Z,1.48
2022-11-20T21:04:28.558Z,1.23
2022-11-20T21:06:55.181Z,1.83
2022-11-20T21:09:21.966Z,1.02
2022-11-20T21:11:48.715Z,1.20
2022-11-20T21:14:15.416Z,1.35
2022-11-20T21:16:43.951Z,1.90
2022-11-20T21:19:11.087Z,2.00
2022-11-20T21:21:56.459Z,1.65
2022-11-20T21:24:23.604Z,1.42
2022-11-20T21:26:52.249Z,0.93
2022-11-20T21:29:20.598Z,1.10
2022-11-20T21:31:47.731Z,1.00
2022-11-20T21:34:15.313Z,1.20
2022-11-20T21:36:42.264Z,1.52
2022-11-20T21:39:11.086Z,1.17
2022-11-20T21:41:38.427Z,1.00
2022-11-20T21:44:30.093Z,0.83
2022-11-20T21:46:53.185Z,0.95
2022-11-20T21:49:19.837Z,1.60
2022-11-20T21:51:47.039Z,1.25
2022-11-20T21:54:13.788Z,1.60
2022-11-20T21:56:40.421Z,1.70
2022-11-20T21:59:07.067Z,2.20
2022-11-20T22:01:34.053Z,1.55
2022-11-20T22:04:02.660Z,1.20
2022-11-20T22:06:34.272Z,1.65
2022-11-20T22:09:02.355Z,1.33
2022-11-20T22:11:29.062Z,1.08
2022-11-20T22:14:14.568Z,1.00
2022-11-20T22:16:41.222Z,1.10
2022-11-20T22:19:08.088Z,1.20
2022-11-20T22:21:35.132Z,1.30
2022-11-20T22:24:02.137Z,5.07
2022-11-20T22:26:33.934Z,3.90
2022-11-20T22:29:04.410Z,1.20
2022-11-20T22:31:31.888Z,0.90
2022-11-20T22:34:01.516Z,1.20
2022-11-20T22:36:29.717Z,1.13
2022-11-20T22:38:57.166Z,0.90
2022-11-20T22:41:29.819Z,1.10
2022-11-20T22:44:05.179Z,1.20
2022-11-20T22:46:35.030Z,1.03
2022-11-20T22:49:04.310Z,0.88
2022-11-20T22:51:33.819Z,1.00
2022-11-20T22:54:01.124Z,0.70
2022-11-20T22:56:27.749Z,1.10
2022-11-20T22:58:55.282Z,0.70
2022-11-20T23:01:30.681Z,0.80
2022-11-20T23:04:02.765Z,1.30
2022-11-20T23:06:30.161Z,1.23
2022-11-20T23:08:56.996Z,1.30
2022-11-20T23:11:26.508Z,1.10
2022-11-20T23:13:58.523Z,0.80
2022-11-20T23:16:27.718Z,0.93
2022-11-20T23:18:56.274Z,0.98
2022-11-20T23:21:26.242Z,1.10
2022-11-20T23:23:55.626Z,0.83
2022-11-20T23:26:24.885Z,0.90
2022-11-20T23:28:53.910Z,0.80
2022-11-20T23:31:20.928Z,0.85
2022-11-20T23:33:47.664Z,0.95
2022-11-20T23:36:14.582Z,0.90
2022-11-20T23:38:41.827Z,1.00
2022-11-20T23:41:08.889Z,1.30
2022-11-20T23:43:35.586Z,1.20
2022-11-20T23:46:03.132Z,1.10
2022-11-20T23:48:32.319Z,1.20
2022-11-20T23:50:59.168Z,1.75
2022-11-20T23:53:26.469Z,1.30
2022-11-20T23:55:55.374Z,0.80
2022-11-20T23:58:23.669Z,1.20
